LBSF/SOF METAR and TAF weather

Enter ICAO airport designator
Station Type Date Time Source
LBSF METAR 2021/05/15 02:00 UTC NOAA

LBSF 150200Z VRB02KT 9999 SCT068 07/05 Q1013 NOSIG


Station Type Date Time Source
LBSF Decoded METAR 2021/05/15 02:00 UTC NOAA

Sofia Observ. , Bulgaria (LBSF) 42-39N 023-23E 595M
May 14, 2021 - 10:00 PM EDT / 2021.05.15 0200 UTC
Wind: Variable at 2 MPH (2 KT):0
Visibility: greater than 7 mile(s):0
Sky conditions: partly cloudy
Temperature: 44 F (7 C)
Dew Point: 41 F (5 C)
Relative Humidity: 87%
Pressure (altimeter): 29.91 in. Hg (1013 hPa)
ob: LBSF 150200Z VRB02KT 9999 SCT068 07/05 Q1013 NOSIG
cycle: 2

Station Type Date Time Source
LBSF TAF 2021/05/14 18:18 UTC NOAA

TAF LBSF 141700Z 1418/1518 26010KT 9999 SCT070
BECMG 1418/1420 VRB04KT
BECMG 1508/1510 09010KT
TEMPO 1510/1518 VRB16G26KT 5000 TSRA SCT030CB BKN040

Example: see airport list